createdAt,value
2023-02-06T00:01:43.341Z,-3.46
2023-02-06T00:04:13.656Z,-3.68
2023-02-06T00:06:40.733Z,-3.66
2023-02-06T00:09:07.880Z,-3.43
2023-02-06T00:11:35.639Z,-3.29
2023-02-06T00:14:02.768Z,-3.33
2023-02-06T00:16:33.805Z,-3.52
2023-02-06T00:19:02.499Z,-3.60
2023-02-06T00:21:30.349Z,-3.56
2023-02-06T00:24:00.005Z,-3.65
2023-02-06T00:26:26.995Z,-3.60
2023-02-06T00:28:54.161Z,-3.62
2023-02-06T00:31:22.141Z,-3.68
2023-02-06T00:33:49.391Z,-3.54
2023-02-06T00:36:16.449Z,-3.67
2023-02-06T00:38:43.558Z,-3.79
2023-02-06T00:41:10.433Z,-3.88
2023-02-06T00:43:37.696Z,-3.86
2023-02-06T00:46:04.944Z,-3.71
2023-02-06T00:48:31.925Z,-3.95
2023-02-06T00:50:58.976Z,-4.00
2023-02-06T00:53:25.887Z,-4.02
2023-02-06T00:55:52.904Z,-3.90
2023-02-06T00:58:19.766Z,-3.96
2023-02-06T01:00:46.669Z,-3.96
2023-02-06T01:03:14.318Z,-4.16
2023-02-06T01:05:41.286Z,-3.95
2023-02-06T01:08:08.129Z,-4.08
2023-02-06T01:10:35.065Z,-4.03
2023-02-06T01:13:01.774Z,-3.80
2023-02-06T01:15:28.577Z,-3.78
2023-02-06T01:17:55.495Z,-3.62
2023-02-06T01:20:24.026Z,-3.75
2023-02-06T01:22:51.586Z,-3.50
2023-02-06T01:25:39.402Z,-3.95
2023-02-06T01:28:06.222Z,-4.01
2023-02-06T01:30:33.594Z,-3.93
2023-02-06T01:33:01.349Z,-4.08
2023-02-06T01:35:29.664Z,-3.98
2023-02-06T01:37:57.444Z,-3.92
2023-02-06T01:40:24.369Z,-4.16
2023-02-06T01:42:51.209Z,-4.16
2023-02-06T01:45:17.973Z,-4.02
2023-02-06T01:47:44.713Z,-4.12
2023-02-06T01:50:11.544Z,-3.98
2023-02-06T01:52:38.745Z,-3.95
2023-02-06T01:55:06.455Z,-3.92
2023-02-06T01:57:34.926Z,-4.22
2023-02-06T02:00:07.876Z,-4.32
2023-02-06T02:02:36.356Z,-4.78
2023-02-06T02:05:08.482Z,-4.55
2023-02-06T02:08:01.373Z,-4.32
2023-02-06T02:10:30.958Z,-4.34
2023-02-06T02:12:58.233Z,-4.17
2023-02-06T02:15:38.241Z,-4.17
2023-02-06T02:18:25.736Z,-4.17
2023-02-06T02:21:24.191Z,-4.22
2023-02-06T02:24:30.893Z,-4.33
2023-02-06T02:27:29.735Z,-4.56
2023-02-06T02:30:10.661Z,-4.41
2023-02-06T02:33:06.807Z,-4.58
2023-02-06T02:35:45.722Z,-4.45
2023-02-06T02:38:25.599Z,-4.39
2023-02-06T02:41:15.042Z,-4.37
2023-02-06T02:43:51.649Z,-4.46
2023-02-06T02:46:29.351Z,-4.46
2023-02-06T02:49:05.876Z,-4.41
2023-02-06T02:51:34.319Z,-4.41
2023-02-06T02:54:01.330Z,-4.37
2023-02-06T02:56:28.377Z,-4.54
2023-02-06T02:59:13.782Z,-4.31
2023-02-06T03:01:51.437Z,-4.19
2023-02-06T03:04:38.284Z,-4.47
2023-02-06T03:07:17.355Z,-4.36
2023-02-06T03:10:09.034Z,-4.33
2023-02-06T03:12:52.767Z,-4.33
2023-02-06T03:15:55.616Z,-4.15
2023-02-06T03:18:31.334Z,-4.43
2023-02-06T03:21:05.723Z,-4.44
2023-02-06T03:23:38.268Z,-4.39
2023-02-06T03:26:08.707Z,-4.34
2023-02-06T03:28:40.407Z,-4.13
2023-02-06T03:31:14.286Z,-4.44
2023-02-06T03:33:53.430Z,-4.29
2023-02-06T03:36:20.371Z,-4.11
2023-02-06T03:38:50.083Z,-4.12
2023-02-06T03:41:20.472Z,-4.00
2023-02-06T03:43:53.366Z,-3.82
2023-02-06T03:46:25.537Z,-4.09
2023-02-06T03:48:57.232Z,-4.01
2023-02-06T03:51:35.412Z,-3.85
2023-02-06T03:54:05.979Z,-4.07
2023-02-06T03:56:45.873Z,-4.60
2023-02-06T03:59:14.390Z,-4.81
2023-02-06T04:01:47.875Z,-4.86
2023-02-06T04:04:17.406Z,-4.89
2023-02-06T04:06:44.632Z,-5.08
2023-02-06T04:09:11.557Z,-4.84
2023-02-06T04:11:38.961Z,-5.03
2023-02-06T04:14:05.684Z,-4.86
2023-02-06T04:16:32.563Z,-4.84
2023-02-06T04:18:59.574Z,-4.83
2023-02-06T04:21:26.372Z,-4.72
2023-02-06T04:23:53.240Z,-4.47
2023-02-06T04:26:20.055Z,-4.13
2023-02-06T04:28:46.907Z,-3.92
2023-02-06T04:31:13.935Z,-4.28
2023-02-06T04:33:40.700Z,-4.22
2023-02-06T04:36:07.705Z,-4.37
2023-02-06T04:38:34.745Z,-4.39
2023-02-06T04:41:20.299Z,-4.32
2023-02-06T04:43:47.274Z,-4.67
2023-02-06T04:46:15.002Z,-4.61
2023-02-06T04:48:41.871Z,-4.41
2023-02-06T04:51:08.744Z,-4.53
2023-02-06T04:53:36.450Z,-4.53
2023-02-06T04:56:05.339Z,-4.62
2023-02-06T04:58:32.209Z,-4.72
2023-02-06T05:00:59.464Z,-4.75
2023-02-06T05:03:26.420Z,-4.60
2023-02-06T05:05:53.334Z,-4.49
2023-02-06T05:08:20.660Z,-4.91
2023-02-06T05:10:47.658Z,-4.96
2023-02-06T05:13:14.609Z,-4.87
2023-02-06T05:15:42.829Z,-4.69
2023-02-06T05:18:09.690Z,-4.76
2023-02-06T05:20:37.661Z,-4.74
2023-02-06T05:23:04.862Z,-4.81
2023-02-06T05:25:32.589Z,-4.87
2023-02-06T05:27:59.785Z,-4.68
2023-02-06T05:30:26.699Z,-4.73
2023-02-06T05:32:53.607Z,-4.68
2023-02-06T05:35:27.997Z,-4.59
2023-02-06T05:37:59.307Z,-4.64
2023-02-06T05:40:28.888Z,-4.66
2023-02-06T05:42:55.691Z,-4.63
2023-02-06T05:45:23.610Z,-4.63
2023-02-06T05:47:51.257Z,-4.64
2023-02-06T05:50:18.327Z,-4.49
2023-02-06T05:52:46.175Z,-4.40
2023-02-06T05:55:13.358Z,-4.54
2023-02-06T05:57:41.207Z,-4.61
2023-02-06T06:00:09.411Z,-4.56
2023-02-06T06:02:36.400Z,-4.70
2023-02-06T06:05:03.328Z,-4.40
2023-02-06T06:07:30.204Z,-4.57
2023-02-06T06:09:58.511Z,-4.42
2023-02-06T06:12:25.513Z,-4.46
2023-02-06T06:14:52.501Z,-4.49
2023-02-06T06:17:19.403Z,-4.37
2023-02-06T06:19:46.215Z,-4.46
2023-02-06T06:22:13.123Z,-4.39
2023-02-06T06:24:39.991Z,-4.41
2023-02-06T06:27:10.695Z,-4.48
2023-02-06T06:29:37.636Z,-4.72
2023-02-06T06:32:05.682Z,-5.12
2023-02-06T06:34:32.507Z,-4.89
2023-02-06T06:36:59.411Z,-4.82
2023-02-06T06:39:26.598Z,-4.87
2023-02-06T06:41:53.425Z,-4.89
2023-02-06T06:44:20.448Z,-4.78
2023-02-06T06:46:48.369Z,-4.72
2023-02-06T06:49:15.116Z,-4.70
2023-02-06T06:51:42.035Z,-4.81
2023-02-06T06:54:09.704Z,-4.77
2023-02-06T06:56:36.574Z,-4.65
2023-02-06T06:59:03.572Z,-4.49
2023-02-06T07:01:30.555Z,-4.48
2023-02-06T07:03:59.490Z,-4.44
2023-02-06T07:06:26.657Z,-4.53
2023-02-06T07:08:53.451Z,-4.47
2023-02-06T07:11:20.323Z,-4.37
2023-02-06T07:13:48.253Z,-4.34
2023-02-06T07:16:15.492Z,-4.24
2023-02-06T07:18:43.287Z,-4.24
2023-02-06T07:21:11.329Z,-4.18
2023-02-06T07:23:38.334Z,-4.15
2023-02-06T07:26:05.377Z,-4.20
2023-02-06T07:28:33.446Z,-4.13
2023-02-06T07:31:02.339Z,-3.93
2023-02-06T07:33:29.573Z,-3.87
2023-02-06T07:35:56.360Z,-3.76
2023-02-06T07:38:23.244Z,-3.60
2023-02-06T07:40:50.093Z,-3.52
2023-02-06T07:43:16.974Z,-3.46
2023-02-06T07:45:44.261Z,-3.43
2023-02-06T07:48:11.364Z,-3.46
2023-02-06T07:50:38.697Z,-3.44
2023-02-06T07:53:05.537Z,-3.41
2023-02-06T07:55:32.370Z,-3.15
2023-02-06T07:57:59.134Z,-3.01
2023-02-06T08:00:30.104Z,-2.94
2023-02-06T08:02:56.889Z,-2.89
2023-02-06T08:05:23.758Z,-2.77
2023-02-06T08:07:51.945Z,-2.94
2023-02-06T08:10:18.925Z,-2.99
2023-02-06T08:12:45.965Z,-3.10
2023-02-06T08:15:13.015Z,-3.11
2023-02-06T08:17:42.753Z,-2.85
2023-02-06T08:20:11.267Z,-2.94
2023-02-06T08:22:38.557Z,-2.63
2023-02-06T08:25:05.998Z,-2.38
2023-02-06T08:27:32.851Z,-2.22
2023-02-06T08:29:59.611Z,-1.94
2023-02-06T08:32:26.917Z,-1.82
2023-02-06T08:34:53.694Z,-1.76
2023-02-06T08:37:20.426Z,-1.70
2023-02-06T08:39:47.213Z,-1.79
2023-02-06T08:42:14.046Z,-1.72
2023-02-06T08:44:41.005Z,-1.60
2023-02-06T08:47:10.291Z,-1.64
2023-02-06T08:49:37.462Z,-1.33
2023-02-06T08:52:04.383Z,-1.16
2023-02-06T08:54:33.166Z,-0.92
2023-02-06T08:57:02.639Z,-1.05
2023-02-06T08:59:29.680Z,-1.42
2023-02-06T09:01:56.495Z,-1.11
2023-02-06T09:04:24.276Z,-0.99
2023-02-06T09:06:52.357Z,-0.50
2023-02-06T09:09:19.204Z,-0.44
2023-02-06T09:11:46.160Z,-0.90
2023-02-06T09:14:17.835Z,-0.81
2023-02-06T09:16:44.995Z,-0.79
2023-02-06T09:19:13.917Z,-0.52
2023-02-06T09:21:40.888Z,-0.42
2023-02-06T09:24:09.096Z,0.03
2023-02-06T09:26:53.423Z,0.40
2023-02-06T09:29:20.635Z,0.55
2023-02-06T09:31:49.567Z,1.05
2023-02-06T09:34:16.438Z,0.52
2023-02-06T09:36:43.299Z,0.45
2023-02-06T09:39:10.388Z,0.75
2023-02-06T09:41:50.442Z,1.03
2023-02-06T09:44:29.935Z,0.18
2023-02-06T09:47:36.531Z,0.48
2023-02-06T09:50:17.426Z,0.68
2023-02-06T09:53:11.762Z,0.37
2023-02-06T09:55:47.941Z,0.97
2023-02-06T09:58:35.580Z,1.43
2023-02-06T10:01:37.726Z,0.84
2023-02-06T10:04:13.262Z,1.00
2023-02-06T10:06:59.874Z,0.67
2023-02-06T10:09:44.201Z,0.80
2023-02-06T10:12:20.187Z,1.17
2023-02-06T10:15:21.115Z,1.57
2023-02-06T10:17:55.126Z,1.86
2023-02-06T10:20:34.902Z,1.75
2023-02-06T10:23:27.182Z,2.20
2023-02-06T10:26:17.395Z,2.51
2023-02-06T10:28:58.403Z,2.63
2023-02-06T10:31:44.993Z,1.97
2023-02-06T10:34:56.534Z,2.38
2023-02-06T10:37:47.752Z,2.61
2023-02-06T10:40:21.192Z,2.41
2023-02-06T10:42:56.557Z,2.07
2023-02-06T10:45:32.815Z,2.37
2023-02-06T10:48:13.283Z,2.50
2023-02-06T10:50:47.817Z,2.56
2023-02-06T10:53:25.903Z,2.89
2023-02-06T10:56:18.832Z,2.11
2023-02-06T10:58:54.284Z,2.73
2023-02-06T11:01:26.959Z,2.75
2023-02-06T11:03:58.649Z,1.51
2023-02-06T11:06:28.823Z,2.08
2023-02-06T11:08:56.361Z,2.40
2023-02-06T11:11:32.169Z,2.61
2023-02-06T11:14:05.762Z,2.94
2023-02-06T11:16:37.637Z,3.03
2023-02-06T11:19:30.468Z,3.72
2023-02-06T11:22:11.654Z,4.39
2023-02-06T11:24:39.948Z,3.49
2023-02-06T11:27:22.914Z,3.51
2023-02-06T11:29:52.334Z,4.05
2023-02-06T11:32:37.679Z,2.79
2023-02-06T11:35:26.465Z,3.42
2023-02-06T11:38:05.489Z,3.03
2023-02-06T11:40:32.821Z,3.52
2023-02-06T11:43:18.931Z,3.78
2023-02-06T11:45:49.042Z,4.39
2023-02-06T11:48:35.981Z,4.19
2023-02-06T11:51:03.917Z,3.81
2023-02-06T11:53:31.863Z,3.66
2023-02-06T11:56:05.720Z,3.29
2023-02-06T11:58:34.021Z,4.08
2023-02-06T12:01:07.140Z,4.23
2023-02-06T12:03:37.808Z,4.90
2023-02-06T12:06:14.927Z,3.70
2023-02-06T12:08:47.240Z,4.56
2023-02-06T12:11:23.263Z,3.03
2023-02-06T12:13:56.565Z,3.17
2023-02-06T12:16:25.597Z,3.40
2023-02-06T12:18:57.989Z,4.13
2023-02-06T12:21:45.561Z,3.77
2023-02-06T12:24:40.954Z,3.98
2023-02-06T12:27:27.823Z,4.07
2023-02-06T12:30:23.076Z,4.66
2023-02-06T12:32:59.062Z,4.56
2023-02-06T12:35:48.197Z,4.45
2023-02-06T12:38:33.336Z,3.46
2023-02-06T12:41:24.802Z,4.35
2023-02-06T12:44:00.285Z,4.86
2023-02-06T12:46:28.991Z,4.57
2023-02-06T12:49:16.166Z,4.87
2023-02-06T12:51:56.219Z,4.77
2023-02-06T12:54:37.650Z,5.09
2023-02-06T12:57:18.953Z,5.40
2023-02-06T13:00:28.639Z,4.92
2023-02-06T13:03:28.759Z,5.81
2023-02-06T13:06:24.355Z,6.56
2023-02-06T13:09:00.807Z,6.73
2023-02-06T13:11:40.849Z,4.63
2023-02-06T13:14:19.378Z,2.97
2023-02-06T13:16:59.045Z,3.83
2023-02-06T13:19:37.661Z,4.30
2023-02-06T13:22:10.394Z,3.48
2023-02-06T13:24:38.962Z,3.79
2023-02-06T13:27:08.738Z,4.70
2023-02-06T13:29:46.808Z,5.54
2023-02-06T13:32:18.630Z,5.62
2023-02-06T13:34:51.403Z,5.88
2023-02-06T13:37:40.048Z,3.64
2023-02-06T13:40:23.911Z,4.05
2023-02-06T13:43:10.286Z,4.43
2023-02-06T13:45:49.475Z,3.44
2023-02-06T13:48:37.744Z,2.99
2023-02-06T13:51:27.749Z,3.67
2023-02-06T13:54:26.568Z,3.91
2023-02-06T13:57:15.904Z,3.58
2023-02-06T13:59:54.390Z,3.83
2023-02-06T14:02:30.162Z,3.58
2023-02-06T14:04:58.792Z,3.16
2023-02-06T14:07:54.402Z,2.71
2023-02-06T14:10:46.088Z,3.39
2023-02-06T14:13:16.728Z,2.66
2023-02-06T14:15:50.794Z,2.92
2023-02-06T14:18:39.033Z,2.36
2023-02-06T14:21:16.841Z,2.14
2023-02-06T14:23:59.813Z,2.08
2023-02-06T14:26:35.882Z,1.94
2023-02-06T14:29:11.765Z,1.93
2023-02-06T14:32:04.498Z,1.81
2023-02-06T14:34:43.812Z,1.85
2023-02-06T14:37:31.312Z,1.50
2023-02-06T14:40:04.409Z,1.44
2023-02-06T14:42:45.657Z,1.85
2023-02-06T14:45:18.107Z,2.33
2023-02-06T14:47:45.076Z,2.77
2023-02-06T14:50:25.586Z,2.58
2023-02-06T14:52:59.464Z,2.57
2023-02-06T14:55:39.381Z,1.98
2023-02-06T14:58:33.735Z,1.68
2023-02-06T15:01:28.067Z,1.58
2023-02-06T15:04:22.589Z,1.68
2023-02-06T15:06:58.791Z,1.92
2023-02-06T15:09:44.053Z,0.76
2023-02-06T15:12:23.916Z,1.32
2023-02-06T15:15:03.014Z,1.45
2023-02-06T15:17:31.567Z,1.63
2023-02-06T15:20:26.193Z,1.55
2023-02-06T15:23:08.067Z,1.54
2023-02-06T15:25:45.797Z,1.06
2023-02-06T15:28:20.206Z,1.15
2023-02-06T15:30:53.819Z,0.69
2023-02-06T15:33:28.063Z,1.11
2023-02-06T15:36:02.611Z,1.24
2023-02-06T15:38:34.391Z,1.70
2023-02-06T15:41:08.757Z,1.92
2023-02-06T15:43:36.469Z,2.02
2023-02-06T15:46:06.042Z,1.48
2023-02-06T15:48:51.564Z,1.84
2023-02-06T15:51:27.115Z,1.47
2023-02-06T15:54:07.402Z,1.23
2023-02-06T15:56:40.332Z,1.46
2023-02-06T15:59:20.493Z,1.79
2023-02-06T16:01:49.366Z,2.14
2023-02-06T16:04:24.407Z,2.33
2023-02-06T16:07:19.680Z,2.45
2023-02-06T16:10:12.604Z,2.47
2023-02-06T16:12:43.688Z,2.71
2023-02-06T16:15:35.823Z,2.96
2023-02-06T16:18:24.188Z,2.90
2023-02-06T16:20:52.485Z,2.87
2023-02-06T16:23:31.097Z,2.75
2023-02-06T16:26:03.970Z,2.61
2023-02-06T16:28:31.831Z,2.46
2023-02-06T16:31:04.862Z,1.99
2023-02-06T16:33:42.546Z,2.25
2023-02-06T16:36:17.863Z,2.43
2023-02-06T16:38:54.000Z,2.24
2023-02-06T16:41:37.733Z,2.25
2023-02-06T16:44:11.875Z,1.65
2023-02-06T16:46:39.748Z,1.83
2023-02-06T16:49:13.291Z,1.45
2023-02-06T16:51:44.278Z,1.07
2023-02-06T16:54:36.028Z,0.74
2023-02-06T16:57:16.698Z,0.98
2023-02-06T16:59:43.758Z,0.97
2023-02-06T17:02:13.063Z,1.11
2023-02-06T17:04:41.764Z,1.45
2023-02-06T17:07:20.563Z,1.59
2023-02-06T17:09:49.770Z,1.59
2023-02-06T17:12:20.560Z,1.59
2023-02-06T17:14:50.233Z,1.60
2023-02-06T17:17:21.586Z,1.60
2023-02-06T17:19:50.068Z,1.36
2023-02-06T17:22:18.143Z,1.54
2023-02-06T17:24:46.345Z,1.76
2023-02-06T17:27:20.146Z,1.35
2023-02-06T17:29:48.652Z,1.17
2023-02-06T17:32:21.766Z,1.49
2023-02-06T17:34:54.411Z,1.23
2023-02-06T17:37:22.579Z,0.60
2023-02-06T17:39:51.544Z,0.31
2023-02-06T17:42:22.106Z,0.10
2023-02-06T17:44:49.815Z,-0.01
2023-02-06T17:47:17.905Z,0.14
2023-02-06T17:49:46.796Z,0.01
2023-02-06T17:52:13.948Z,0.02
2023-02-06T17:54:41.802Z,-0.17
2023-02-06T17:57:09.848Z,-0.12
2023-02-06T17:59:37.733Z,-0.19
2023-02-06T18:02:07.399Z,-0.20
2023-02-06T18:04:35.349Z,-0.30
2023-02-06T18:07:03.451Z,0.10
2023-02-06T18:09:31.322Z,-0.25
2023-02-06T18:11:59.383Z,-0.22
2023-02-06T18:14:27.480Z,-0.04
2023-02-06T18:16:54.659Z,-0.30
2023-02-06T18:19:25.557Z,-0.08
2023-02-06T18:21:55.846Z,0.21
2023-02-06T18:24:24.478Z,0.12
2023-02-06T18:26:51.696Z,-0.17
2023-02-06T18:29:20.331Z,0.19
2023-02-06T18:31:47.524Z,0.30
2023-02-06T18:34:15.209Z,-0.22
2023-02-06T18:36:42.797Z,-0.31
2023-02-06T18:39:11.212Z,-0.50
2023-02-06T18:41:56.884Z,-1.08
2023-02-06T18:44:25.789Z,-0.59
2023-02-06T18:46:53.955Z,-0.49
2023-02-06T18:49:22.921Z,-0.59
2023-02-06T18:51:51.391Z,-0.09
2023-02-06T18:54:19.556Z,-0.01
2023-02-06T18:56:48.923Z,0.19
2023-02-06T18:59:17.354Z,0.15
2023-02-06T19:01:45.302Z,0.19
2023-02-06T19:04:13.806Z,0.19
2023-02-06T19:06:43.231Z,0.08
2023-02-06T19:09:12.263Z,0.12
2023-02-06T19:11:42.843Z,-0.33
2023-02-06T19:14:15.416Z,-0.26
2023-02-06T19:16:44.767Z,-0.21
2023-02-06T19:19:13.913Z,-0.01
2023-02-06T19:21:41.184Z,0.10
2023-02-06T19:24:12.746Z,0.29
2023-02-06T19:26:41.570Z,0.32
2023-02-06T19:29:11.706Z,0.23
2023-02-06T19:31:41.400Z,-0.02
2023-02-06T19:34:09.497Z,-0.86
2023-02-06T19:36:38.529Z,-0.61
2023-02-06T19:39:09.657Z,-0.66
2023-02-06T19:41:38.211Z,-0.33
2023-02-06T19:44:11.648Z,-0.08
2023-02-06T19:46:39.217Z,0.10
2023-02-06T19:49:08.870Z,0.19
2023-02-06T19:51:40.210Z,0.27
2023-02-06T19:54:07.835Z,0.45
2023-02-06T19:56:39.384Z,0.47
2023-02-06T19:59:10.089Z,0.47
2023-02-06T20:01:37.167Z,0.49
2023-02-06T20:04:06.272Z,0.32
2023-02-06T20:06:35.454Z,0.23
2023-02-06T20:09:05.354Z,0.10
2023-02-06T20:11:33.955Z,-0.07
2023-02-06T20:14:02.325Z,-0.36
2023-02-06T20:16:34.203Z,-0.16
2023-02-06T20:19:13.445Z,-0.50
2023-02-06T20:21:43.414Z,-0.64
2023-02-06T20:24:14.152Z,-1.02
2023-02-06T20:26:42.485Z,-1.04
2023-02-06T20:29:19.578Z,-0.85
2023-02-06T20:31:48.442Z,-0.57
2023-02-06T20:34:18.102Z,-0.48
2023-02-06T20:36:46.525Z,-0.42
2023-02-06T20:39:15.107Z,-0.41
2023-02-06T20:41:42.868Z,-0.30
2023-02-06T20:44:11.683Z,-0.52
2023-02-06T20:46:41.261Z,-0.33
2023-02-06T20:49:15.733Z,-1.27
2023-02-06T20:51:43.787Z,-1.19
2023-02-06T20:54:12.218Z,-1.17
2023-02-06T20:56:40.794Z,-1.03
2023-02-06T20:59:13.606Z,-0.97
2023-02-06T21:01:42.797Z,-0.84
2023-02-06T21:04:13.326Z,-0.84
2023-02-06T21:06:42.114Z,-1.79
2023-02-06T21:09:10.745Z,-1.37
2023-02-06T21:11:43.921Z,-1.16
2023-02-06T21:14:13.986Z,-1.20
2023-02-06T21:16:43.958Z,-1.18
2023-02-06T21:19:14.024Z,-1.44
2023-02-06T21:21:43.664Z,-1.76
2023-02-06T21:24:14.028Z,-1.58
2023-02-06T21:26:41.314Z,-1.39
2023-02-06T21:29:08.419Z,-1.26
2023-02-06T21:31:38.718Z,-1.75
2023-02-06T21:34:17.818Z,-1.72
2023-02-06T21:36:46.345Z,-1.45
2023-02-06T21:39:21.117Z,-1.50
2023-02-06T21:41:51.837Z,-1.82
2023-02-06T21:44:21.232Z,-1.85
2023-02-06T21:46:51.868Z,-1.62
2023-02-06T21:49:21.297Z,-1.93
2023-02-06T21:51:50.607Z,-1.84
2023-02-06T21:54:18.352Z,-2.23
2023-02-06T21:56:48.108Z,-2.08
2023-02-06T21:59:16.151Z,-2.17
2023-02-06T22:01:43.544Z,-2.54
2023-02-06T22:04:12.260Z,-2.61
2023-02-06T22:06:40.125Z,-2.89
2023-02-06T22:09:11.118Z,-2.97
2023-02-06T22:11:40.140Z,-2.96
2023-02-06T22:14:11.137Z,-2.78
2023-02-06T22:16:38.492Z,-2.87
2023-02-06T22:19:06.708Z,-2.92
2023-02-06T22:21:34.751Z,-2.94
2023-02-06T22:24:07.074Z,-2.86
2023-02-06T22:26:38.995Z,-2.60
2023-02-06T22:29:10.257Z,-2.49
2023-02-06T22:31:40.465Z,-2.16
2023-02-06T22:34:11.947Z,-2.06
2023-02-06T22:36:39.634Z,-2.15
2023-02-06T22:39:09.532Z,-2.27
2023-02-06T22:41:40.128Z,-2.04
2023-02-06T22:44:07.325Z,-2.56
2023-02-06T22:46:37.804Z,-3.19
2023-02-06T22:49:09.477Z,-2.97
2023-02-06T22:51:37.638Z,-3.30
2023-02-06T22:54:05.861Z,-3.27
2023-02-06T22:56:37.471Z,-3.39
2023-02-06T22:59:08.231Z,-3.29
2023-02-06T23:01:38.007Z,-3.36
2023-02-06T23:04:08.568Z,-3.97
2023-02-06T23:06:36.975Z,-3.96
2023-02-06T23:09:07.860Z,-3.81
2023-02-06T23:11:36.294Z,-4.06
2023-02-06T23:14:06.494Z,-3.73
2023-02-06T23:16:35.217Z,-3.72
2023-02-06T23:19:04.755Z,-3.50
2023-02-06T23:21:37.186Z,-3.44
2023-02-06T23:24:07.195Z,-3.94
2023-02-06T23:26:35.120Z,-4.49
2023-02-06T23:29:04.568Z,-4.66
2023-02-06T23:31:33.702Z,-4.29
2023-02-06T23:34:01.170Z,-3.91
2023-02-06T23:36:30.140Z,-4.38
2023-02-06T23:39:00.542Z,-4.10
2023-02-06T23:41:29.094Z,-4.22
2023-02-06T23:44:02.218Z,-4.27
2023-02-06T23:46:32.293Z,-4.41
2023-02-06T23:48:59.454Z,-4.32
2023-02-06T23:51:27.577Z,-4.35
2023-02-06T23:53:54.840Z,-4.09
2023-02-06T23:56:25.274Z,-3.95
2023-02-06T23:58:53.969Z,-4.04
